x

West Superior - 30nm Ne Of Outer Island, Wi (45006) Wave Buoy

1:50am - Sat 20th Sep 2014 All times are CDT. -5 hours from GMT.

  • Sig Wave height 0.7ft
  • Average Period 3s
  • Wind
    7mph, 9mph gusts
  • Sea Temp 48°f
  • Air Temp 55°f
  • Sea Pressure 1002.4mb
  • West Superior - 30nm Ne Of Outer Island, Wi
  • West Superior - 30nm Ne Of Outer Island, Wi

More Historic Weather Station data

Upgrade to MSW Pro to gain access to the past 30 days of data for over 8000 Wavebouys and Weather Stations around the globe.

Join Pro

Comparision Forecast

View Surf forecast
   
Sat 09/20 1:50am 0.7ft  -  3s 7 9 mph 1002.4mb 48f 55f
12:50am 0.7ft  -  3s 7
mph
1002mb 48f 55f
Fri 09/19 11:50pm 1ft 3s 3s 9
mph
1002.8mb 48f 53f
10:50pm 1ft 3s 3s 9
mph
1003.2mb 48f 54f
9:50pm 1.3ft 4s 3s 9 11 mph 1003.3mb 48f 54f
8:50pm 1.3ft 4s 3s 9
mph
1003.4mb 47f 54f
7:50pm 1.6ft 4s 4s 7
mph
1003.3mb 47f 54f
6:50pm 2ft 4s 4s 9 11 mph 1003.4mb 47f 54f
5:50pm 2ft 4s 4s 7
mph
1003.7mb 47f 54f
4:50pm 2ft 5s 4s 9
mph
1003.8mb 47f 53f
3:50pm 2ft 5s 4s 7 9 mph 1005.2mb 47f 53f
2:50pm 2ft 5s 4s 7
mph
1005.6mb 48f 53f
1:50pm 2.5ft 5s 4s 4 7 mph 1007mb 48f 52f
12:50pm 2.5ft 4s 4s 18 22 mph 1005mb 48f 55f
11:50am 3ft 5s 4s 13 16 mph 1008.6mb 48f 53f
10:50am 2.5ft 5s 4s 16 20 mph 1009.6mb 49f 54f
9:50am 3ft 4s 4s 18
mph
1010.8mb 48f 53f
8:50am 3ft 4s 4s 18 20 mph 1011mb 48f 53f
7:50am 3ft 5s 4s 20 22 mph 1012.3mb 48f 53f
6:50am 2.5ft 4s 3s 16 18 mph 1013.7mb 48f 53f
5:50am 2.5ft 3s 3s 20 22 mph 1013.6mb 48f 53f
4:50am 1.3ft 2s 3s 16 20 mph 1014.3mb 48f 53f
3:50am 1ft 4s 3s 13
mph
1014.7mb 48f 52f
2:50am 1ft 4s 4s 11
mph
1015.5mb 48f 51f
1:50am 1.3ft 4s 3s 7
mph
1016.4mb 48f 49f
12:50am 1.3ft 4s 3s 7 9 mph 1017.1mb 47f 48f
Thu 09/18 11:50pm 1.3ft 4s 3s 9 11 mph 1017.1mb 47f 48f
10:50pm 1.3ft 4s 3s 9 11 mph 1017.7mb 46f 47f
9:50pm 1.3ft 4s 3s 9
mph
1018.6mb 46f 47f
8:50pm 1.3ft 3s 3s 7 9 mph 1019.2mb 47f 47f
7:50pm 1ft 3s 3s 9 11 mph 1019.1mb 47f 47f
6:50pm 1ft 3s 3s 11
mph
1019.2mb 47f 47f
5:50pm 1ft 3s 3s 11 13 mph 1020mb 47f 46f
4:50pm 1ft 3s 3s 11 13 mph 1020.3mb 47f 46f
3:50pm 1ft 3s 3s 11 13 mph 1020.8mb 47f 45f
2:50pm 1ft 3s 3s 9
mph
1021.9mb 47f 44f
1:50pm 1.3ft 3s 3s 9 11 mph 1022.4mb 47f 44f
12:50pm 1.6ft 3s 3s 11 13 mph 1023mb 47f 44f
11:50am 1.3ft 3s 3s 11 16 mph 1023.4mb 47f 44f
10:50am 1.3ft 3s 3s 11 13 mph 1023.4mb 47f 44f
9:50am 1.3ft 5s 3s 13 16 mph 1023.1mb 46f 44f
8:50am 1.3ft 5s 3s 13 16 mph 1023.1mb 46f 44f
7:50am 1.6ft 5s 4s 11 18 mph 1022.8mb 46f 44f
6:50am 2ft 5s 4s 7 9 mph 1022.8mb 46f 44f
5:50am 2ft 5s 4s 9 13 mph 1022.7mb 46f 44f
4:50am 2.5ft 5s 4s 11 13 mph 1022.5mb 47f 44f
3:50am 2.5ft 5s 4s 11 13 mph 1022.3mb 47f 44f
2:50am 2.5ft 6s 4s 11 13 mph 1022.3mb 47f 44f
1:50am 2.5ft 6s 4s 13 16 mph 1021.9mb 47f 44f
12:50am 2.5ft 6s 4s 13 16 mph 1021.8mb 47f 44f
Wed 09/17 11:50pm 2.5ft 6s 4s 13 16 mph 1021.7mb 47f 45f
10:50pm 3ft 6s 4s 16 18 mph 1021.5mb 47f 44f
9:50pm 3ft 6s 4s 16 18 mph 1021.2mb 47f 45f
8:50pm 3.5ft 6s 4s 16 18 mph 1020.9mb 47f 45f
7:50pm 3.5ft 6s 4s 16 18 mph 1020.3mb 47f 45f
6:50pm 4.5ft 6s 4s 18 20 mph 1019.9mb 47f 44f
5:50pm 5ft 6s 5s 18 22 mph 1019.5mb 47f 44f
4:50pm 5ft 6s 5s 22 25 mph 1018.7mb 47f 44f
3:50pm 5ft 6s 5s 20 25 mph 1018.2mb 47f 44f
2:50pm 5.5ft 6s 5s 20 22 mph 1017.8mb 46f 44f
1:50pm 5.5ft 6s 5s 20 25 mph 1017.2mb 45f 44f
12:50pm 5ft 6s 5s 22 27 mph 1016.4mb 45f 44f
11:50am 4ft 5s 4s 22 27 mph 1015.8mb 45f 44f
10:50am 3ft 5s 4s 22 25 mph 1015.1mb 46f 44f
9:50am 2.5ft 4s 3s 16 18 mph 1014.6mb 46f 46f
8:50am 1.6ft 4s 3s 13 16 mph 1014mb 46f 46f
7:50am 1.6ft 4s 3s 11
mph
1014mb 46f 47f
6:50am 1.6ft 4s 4s 13 18 mph 1013.9mb 47f 47f
5:50am 2ft 4s 4s 4
mph
1012.6mb 47f 46f
4:50am 2ft 4s 4s 2
mph
1012.6mb 47f 46f
3:50am 2ft 4s 4s 2 7 mph 1012.8mb 47f 47f
2:50am 2ft 4s 4s 7
mph
1013.2mb 47f 48f
1:50am 2ft 4s 4s 11 13 mph 1013.7mb 47f 48f
12:50am 2ft 4s 4s 11 13 mph 1014.5mb 47f 47f
Tue 09/16 11:50pm 2.5ft 4s 4s 13 18 mph 1015.2mb 47f 48f
10:50pm 1.6ft 5s 3s 18 22 mph 1015.3mb 47f 49f
9:50pm 1.6ft 5s 4s 13
mph
1015.5mb 47f 49f
8:50pm 2.5ft 5s 4s 4
mph
1015.2mb 47f 52f
7:50pm 2.5ft 5s 4s 7
mph
1014.9mb 47f 50f
6:50pm 3.5ft 6s 4s 4 7 mph 1014.8mb 46f 51f
5:50pm 3.5ft 6s 4s 7 9 mph 1014.8mb 46f 51f
4:50pm 4ft 6s 5s 13 16 mph 1014.3mb 46f 53f
3:50pm 4.5ft 6s 5s 13
mph
1014.4mb 46f 53f
2:50pm 4.5ft 6s 5s 18 20 mph 1014.3mb 46f 54f
1:50pm 4.5ft 6s 5s 18 20 mph 1014.7mb 47f 53f
12:50pm 4.5ft 6s 5s 16 18 mph 1015.1mb 47f 51f
11:50am 4.5ft 6s 5s 18 20 mph 1015.4mb 47f 51f
10:50am 5ft 6s 5s 20 22 mph 1015.6mb 47f 50f
9:50am 4.5ft 5s 5s 20 22 mph 1016.2mb 47f 50f
8:50am 4ft 5s 4s 18 20 mph 1016.4mb 47f 50f